Time;durP1;ratioP1;P1;durP2;ratioP2;P2;SDS_P1;SDS_P2;PMS_P1;PMS_P2;Temp;Humidity;BMP_temperature;BMP_pressure;BME280_temperature;BME280_humidity;BME280_pressure;Samples;Min_cycle;Max_cycle;Signal;HPM_P1;HPM_P2
2024/04/25 00:01:11;;;;;;;;;14.75;11.50;;;;;5.79;83.69;99225.28;112267;232;169639;-60
2024/04/25 00:04:07;;;;;;;;;15.00;11.67;;;;;5.74;83.92;99226.23;112454;232;40693;-61
2024/04/25 00:06:43;;;;;;;;;17.00;13.33;;;;;5.76;84.00;99225.71;112328;232;169757;-62
2024/04/25 00:09:19;;;;;;;;;12.00;9.67;;;;;5.76;84.08;99225.84;112434;235;39982;-59
2024/04/25 00:11:58;;;;;;;;;18.33;13.33;;;;;5.76;84.16;99226.13;112436;232;41329;-59
2024/04/25 00:14:34;;;;;;;;;18.00;14.00;;;;;5.76;84.07;99226.39;112549;235;41456;-61
2024/04/25 00:17:08;;;;;;;;;16.50;13.00;;;;;5.77;84.25;99227.36;112860;235;40125;-60
2024/04/25 00:19:43;;;;;;;;;18.00;12.00;;;;;5.76;84.18;99222.46;112442;232;170093;-58
2024/04/25 00:22:18;;;;;;;;;17.00;13.00;;;;;5.74;84.32;99226.77;112848;232;42586;-58
2024/04/25 00:24:58;;;;;;;;;18.75;15.00;;;;;5.75;84.33;99224.48;112244;234;169335;-59
2024/04/25 00:27:33;;;;;;;;;22.00;16.00;;;;;5.77;84.31;99227.45;112655;231;40649;-59
2024/04/25 00:30:09;;;;;;;;;19.67;14.33;;;;;5.77;84.38;99228.77;112656;232;169086;-59
2024/04/25 00:32:45;;;;;;;;;16.67;13.33;;;;;5.77;84.21;99225.23;112363;234;40370;-59
2024/04/25 00:35:20;;;;;;;;;18.00;14.00;;;;;5.76;84.25;99227.04;112453;232;40662;-59
2024/04/25 00:37:58;;;;;;;;;22.00;16.00;;;;;5.75;84.37;99233.12;112220;233;169368;-59
2024/04/25 00:40:33;;;;;;;;;20.00;14.75;;;;;5.72;84.36;99236.35;112434;236;40700;-60
2024/04/25 00:43:08;;;;;;;;;16.00;12.00;;;;;5.69;84.52;99238.48;112292;232;169939;-61
2024/04/25 00:45:46;;;;;;;;;20.00;15.00;;;;;5.62;84.67;99239.17;112441;232;40345;-61
2024/04/25 00:48:24;;;;;;;;;16.00;13.00;;;;;5.60;84.77;99240.10;112318;232;169700;-60
2024/04/25 00:51:03;;;;;;;;;16.00;12.67;;;;;5.61;84.88;99241.64;112404;233;40401;-58
2024/04/25 00:53:40;;;;;;;;;19.00;16.00;;;;;5.62;84.92;99242.89;112417;232;40980;-58
2024/04/25 00:56:20;;;;;;;;;19.00;14.33;;;;;5.64;84.79;99243.74;112231;234;169888;-57
2024/04/25 00:59:01;;;;;;;;;23.25;16.00;;;;;5.67;84.97;99246.59;112475;232;40806;-58
2024/04/25 01:01:42;;;;;;;;;19.00;13.67;;;;;5.68;84.87;99245.27;112273;234;169580;-57
2024/04/25 01:04:25;;;;;;;;;22.00;17.00;;;;;5.65;85.04;99245.04;112521;236;39846;-60
2024/04/25 01:07:04;;;;;;;;;15.00;12.00;;;;;5.65;84.95;99245.48;112314;232;169624;-60
2024/04/25 01:09:41;;;;;;;;;11.00;10.00;;;;;5.63;85.01;99244.46;112502;232;40539;-60
2024/04/25 01:12:20;;;;;;;;;18.00;13.00;;;;;5.66;85.02;99244.99;112357;232;169241;-60
2024/04/25 01:14:55;;;;;;;;;18.50;15.00;;;;;5.60;85.20;99239.77;112426;233;41153;-57
2024/04/25 01:17:33;;;;;;;;;22.00;16.00;;;;;5.59;85.20;99243.47;112426;232;41028;-58
2024/04/25 01:20:09;;;;;;;;;17.00;12.00;;;;;5.56;84.99;99244.17;112264;236;168763;-60
2024/04/25 01:22:50;;;;;;;;;14.75;12.25;;;;;5.52;85.17;99240.20;112397;233;41283;-61
2024/04/25 01:25:25;;;;;;;;;17.00;13.00;;;;;5.54;85.08;99241.13;112276;232;168460;-60
2024/04/25 01:28:09;;;;;;;;;20.00;14.00;;;;;5.45;85.33;99238.65;112467;236;40669;-61
2024/04/25 01:30:49;;;;;;;;;16.00;12.00;;;;;5.38;85.27;99236.41;112295;232;169241;-60
2024/04/25 01:33:28;;;;;;;;;19.00;15.00;;;;;5.34;85.36;99237.42;112469;233;40182;-59
2024/04/25 01:36:06;;;;;;;;;18.50;14.50;;;;;5.31;85.45;99238.14;112490;232;40754;-57
2024/04/25 01:38:40;;;;;;;;;16.00;13.00;;;;;5.26;85.49;99234.98;112503;232;40408;-58
2024/04/25 01:41:16;;;;;;;;;11.67;8.00;;;;;5.27;85.70;99232.88;112814;232;40824;-56
2024/04/25 01:43:55;;;;;;;;;23.00;17.00;;;;;5.28;85.71;99231.88;112431;232;169255;-59
2024/04/25 01:46:37;;;;;;;;;16.67;12.00;;;;;5.28;85.70;99238.73;112825;232;39976;-59
2024/04/25 01:49:15;;;;;;;;;15.00;12.00;;;;;5.26;85.72;99241.10;112373;233;169092;-57
2024/04/25 01:51:49;;;;;;;;;21.00;14.00;;;;;5.24;85.95;99238.64;112779;235;41779;-57
2024/04/25 01:54:25;;;;;;;;;12.00;9.00;;;;;5.23;85.87;99235.91;112692;232;169720;-60
2024/04/25 01:57:02;;;;;;;;;13.00;9.00;;;;;5.21;85.94;99233.62;112531;233;40250;-60
2024/04/25 01:59:40;;;;;;;;;18.00;14.00;;;;;5.20;85.94;99232.34;112489;232;41620;-59
2024/04/25 02:02:21;;;;;;;;;10.50;9.00;;;;;5.14;85.89;99228.08;112342;233;169460;-59
2024/04/25 02:04:57;;;;;;;;;11.50;9.50;;;;;5.10;85.93;99228.90;112787;235;40145;-57
2024/04/25 02:07:36;;;;;;;;;18.00;12.00;;;;;5.08;85.87;99232.53;112380;233;169389;-57
2024/04/25 02:10:12;;;;;;;;;12.00;10.00;;;;;5.03;85.72;99230.99;112427;234;41519;-60
2024/04/25 02:12:51;;;;;;;;;14.00;11.00;;;;;4.99;85.71;99232.86;112405;232;171197;-60
2024/04/25 02:15:28;;;;;;;;;15.00;11.67;;;;;4.88;85.83;99234.77;112651;232;41510;-56
2024/04/25 02:18:06;;;;;;;;;15.00;11.00;;;;;4.75;85.96;99233.23;112766;232;39798;-56
2024/04/25 02:26:25;;;;;;;;;12.25;8.25;;;;;4.50;86.25;99245.21;112281;232;169432;-58
2024/04/25 02:29:01;;;;;;;;;8.33;7.33;;;;;4.42;86.21;99246.21;112409;236;43315;-56
2024/04/25 02:31:41;;;;;;;;;10.67;9.33;;;;;4.32;86.28;99245.55;112329;233;169089;-57
2024/04/25 02:34:24;;;;;;;;;12.00;10.00;;;;;4.21;86.38;99247.69;112547;236;41924;-59
2024/04/25 02:36:59;;;;;;;;;11.00;8.00;;;;;4.10;86.57;99246.86;112344;232;169663;-58
2024/04/25 02:39:45;;;;;;;;;16.00;10.00;;;;;4.03;86.60;99250.91;112525;236;41374;-59
2024/04/25 02:42:23;;;;;;;;;12.00;10.00;;;;;3.96;86.70;99252.92;112431;232;172520;-60
2024/04/25 02:45:03;;;;;;;;;10.00;7.00;;;;;3.92;86.71;99255.01;112492;234;40205;-57
2024/04/25 02:47:37;;;;;;;;;12.33;9.33;;;;;3.88;86.91;99257.56;112485;232;40113;-57
2024/04/25 02:50:20;;;;;;;;;13.00;9.00;;;;;3.81;86.93;99261.61;112287;232;169558;-59
2024/04/25 02:53:00;;;;;;;;;13.00;9.00;;;;;3.76;87.12;99262.92;112445;232;40144;-60
2024/04/25 02:55:42;;;;;;;;;7.00;6.00;;;;;3.71;87.17;99269.29;112291;236;169591;-60
2024/04/25 02:58:19;;;;;;;;;15.00;10.00;;;;;3.70;87.16;99269.59;112350;232;40596;-58
2024/04/25 03:01:02;;;;;;;;;12.00;9.00;;;;;3.68;87.06;99271.94;112362;231;169422;-55
2024/04/25 03:03:39;;;;;;;;;12.00;9.00;;;;;3.65;87.20;99271.59;112772;231;40427;-56
2024/04/25 03:06:13;;;;;;;;;10.00;8.00;;;;;3.65;87.16;99268.92;112828;235;40589;-56
2024/04/25 03:08:54;;;;;;;;;11.00;9.00;;;;;3.63;87.13;99270.09;112400;234;40189;-58
2024/04/25 03:11:32;;;;;;;;;11.00;9.00;;;;;3.61;87.52;99269.23;112452;232;41153;-58
2024/04/25 03:14:09;;;;;;;;;13.00;9.00;;;;;3.59;87.41;99271.11;112334;236;169481;-56
2024/04/25 03:16:44;;;;;;;;;13.00;10.00;;;;;3.57;87.52;99276.09;112818;232;40288;-56
2024/04/25 03:19:20;;;;;;;;;13.00;9.00;;;;;3.55;87.54;99278.23;112505;232;169646;-57
2024/04/25 03:21:54;;;;;;;;;13.00;9.50;;;;;3.52;87.83;99276.52;112709;232;41992;-57
2024/04/25 03:24:34;;;;;;;;;11.00;9.00;;;;;3.55;88.03;99284.92;112659;235;169948;-59
2024/04/25 03:27:09;;;;;;;;;11.33;8.00;;;;;3.58;87.91;99278.59;112593;235;40080;-60
2024/04/25 03:29:45;;;;;;;;;13.00;10.00;;;;;3.54;88.12;99280.10;112877;232;39704;-59
2024/04/25 03:32:21;;;;;;;;;11.00;7.67;;;;;3.53;88.15;99279.38;112469;235;169888;-57
2024/04/25 03:35:01;;;;;;;;;13.33;10.67;;;;;3.50;88.38;99280.95;112461;232;41728;-57
2024/04/25 03:37:39;;;;;;;;;15.00;11.00;;;;;3.50;88.47;99281.89;112463;235;169575;-56
2024/04/25 03:40:14;;;;;;;;;14.00;10.25;;;;;3.53;88.48;99282.61;112866;232;41597;-58
2024/04/25 03:42:48;;;;;;;;;14.50;10.75;;;;;3.59;88.44;99289.23;112573;235;169776;-59
2024/04/25 03:45:24;;;;;;;;;14.00;11.00;;;;;3.59;88.64;99292.75;112475;232;40300;-57
2024/04/25 03:48:04;;;;;;;;;14.00;11.00;;;;;3.61;88.92;99294.50;112450;232;41052;-56
2024/04/25 03:50:39;;;;;;;;;13.00;10.00;;;;;3.66;89.02;99297.85;112315;236;170001;-57
2024/04/25 03:53:15;;;;;;;;;16.00;12.00;;;;;3.71;89.14;99301.71;112500;232;40243;-56
2024/04/25 03:55:50;;;;;;;;;19.00;14.00;;;;;3.77;89.32;99299.45;112264;232;169477;-58
2024/04/25 03:58:30;;;;;;;;;15.00;12.00;;;;;3.86;89.30;99303.09;112407;232;39935;-57
2024/04/25 04:01:16;;;;;;;;;14.00;11.00;;;;;3.92;89.36;99308.77;112290;232;169578;-56
2024/04/25 04:04:12;;;;;;;;;18.00;13.00;;;;;4.03;89.32;99311.27;112457;236;40461;-59
2024/04/25 04:07:09;;;;;;;;;20.00;12.00;;;;;4.13;89.28;99314.48;112329;232;169668;-58
2024/04/25 04:09:51;;;;;;;;;15.25;10.00;;;;;4.19;89.24;99316.23;112497;236;40189;-56
2024/04/25 04:12:28;;;;;;;;;16.00;12.00;;;;;4.17;89.32;99321.38;112312;235;170368;-56
2024/04/25 04:15:05;;;;;;;;;15.00;11.00;;;;;4.15;89.56;99322.70;112856;235;40616;-59
2024/04/25 04:17:45;;;;;;;;;16.33;13.00;;;;;4.21;89.46;99326.27;112864;232;40369;-62
2024/04/25 04:20:26;;;;;;;;;17.00;13.00;;;;;4.30;89.27;99324.70;112365;235;169609;-59
2024/04/25 04:23:03;;;;;;;;;20.00;15.00;;;;;4.35;89.13;99324.73;112441;232;40640;-59
2024/04/25 04:25:41;;;;;;;;;17.00;13.00;;;;;4.37;89.23;99326.18;112302;232;169935;-58
2024/04/25 04:28:21;;;;;;;;;24.50;18.00;;;;;4.49;89.34;99334.27;112425;232;41801;-60
2024/04/25 04:30:58;;;;;;;;;20.00;13.00;;;;;4.66;89.32;99333.52;112368;232;170406;-59
2024/04/25 04:33:37;;;;;;;;;23.00;16.00;;;;;4.93;89.51;99334.66;112839;231;40010;-59
2024/04/25 04:36:12;;;;;;;;;27.00;20.00;;;;;5.22;89.53;99339.33;112815;232;40169;-57
2024/04/25 04:38:47;;;;;;;;;24.00;19.00;;;;;5.53;89.39;99339.92;112551;232;40135;-58
2024/04/25 04:41:27;;;;;;;;;31.00;22.00;;;;;5.93;89.31;99340.23;112425;236;41422;-57
2024/04/25 04:44:03;;;;;;;;;31.00;22.50;;;;;6.31;88.93;99343.20;112392;232;169020;-60
2024/04/25 04:46:45;;;;;;;;;27.00;19.00;;;;;6.22;88.45;99343.98;112486;232;40141;-60
2024/04/25 04:49:22;;;;;;;;;26.00;20.75;;;;;6.11;88.09;99344.64;112353;232;169630;-60
2024/04/25 04:51:59;;;;;;;;;24.50;19.00;;;;;5.93;87.82;99350.41;112473;232;40892;-60
2024/04/25 04:54:35;;;;;;;;;32.50;23.00;;;;;5.86;87.88;99351.88;112320;236;169423;-60
2024/04/25 04:57:11;;;;;;;;;29.00;19.33;;;;;5.83;87.97;99348.67;112620;235;41304;-60
2024/04/25 04:59:52;;;;;;;;;21.67;16.33;;;;;5.85;87.90;99346.38;112880;232;40401;-60
2024/04/25 05:02:35;;;;;;;;;25.00;20.00;;;;;5.98;87.98;99350.06;112470;232;169971;-60
2024/04/25 05:05:11;;;;;;;;;25.00;18.33;;;;;6.13;87.91;99353.77;112849;235;41080;-59
2024/04/25 05:07:56;;;;;;;;;27.00;22.00;;;;;6.22;87.98;99357.80;112294;234;170145;-59
2024/04/25 05:10:38;;;;;;;;;25.00;18.00;;;;;6.27;87.92;99356.10;112784;232;41403;-57
2024/04/25 05:13:18;;;;;;;;;23.00;19.00;;;;;6.45;87.96;99362.27;112588;232;170288;-57
2024/04/25 05:15:52;;;;;;;;;21.00;15.00;;;;;6.64;88.16;99361.33;112432;232;40948;-57
2024/04/25 05:18:32;;;;;;;;;25.00;19.00;;;;;6.91;87.80;99367.27;112421;232;170272;-58
2024/04/25 05:21:10;;;;;;;;;29.00;21.50;;;;;6.95;87.43;99368.14;112498;233;40816;-57
2024/04/25 05:23:48;;;;;;;;;26.00;21.00;;;;;7.32;87.43;99373.48;112780;235;40391;-59
2024/04/25 05:26:26;;;;;;;;;31.00;23.00;;;;;7.82;86.75;99370.65;112599;231;170758;-59
2024/04/25 05:29:00;;;;;;;;;25.33;20.00;;;;;8.67;86.61;99372.16;112800;232;40881;-58
2024/04/25 05:31:41;;;;;;;;;23.00;18.00;;;;;10.35;87.08;99371.63;112520;232;170065;-57
2024/04/25 05:34:20;;;;;;;;;24.50;19.00;;;;;12.13;86.31;99368.10;112537;232;39905;-57
2024/04/25 05:36:58;;;;;;;;;33.00;25.00;;;;;13.31;83.63;99370.25;112396;232;170289;-58
2024/04/25 05:39:31;;;;;;;;;28.00;22.00;;;;;13.28;80.66;99372.19;112777;231;40841;-60
2024/04/25 05:42:09;;;;;;;;;31.00;24.00;;;;;12.85;78.77;99375.42;112777;232;40826;-61
2024/04/25 05:44:49;;;;;;;;;29.00;22.50;;;;;12.90;78.38;99376.54;112409;235;169990;-60
2024/04/25 05:47:30;;;;;;;;;29.00;23.00;;;;;14.08;77.20;99374.68;112506;236;40981;-59
2024/04/25 05:50:07;;;;;;;;;29.50;23.00;;;;;15.48;75.90;99381.75;112391;232;169832;-60
2024/04/25 05:52:48;;;;;;;;;30.00;23.00;;;;;16.79;73.74;99377.04;112561;236;40562;-60
2024/04/25 05:55:31;;;;;;;;;24.00;20.33;;;;;17.63;72.46;99377.42;112388;236;170045;-60
2024/04/25 05:58:07;;;;;;;;;31.00;24.00;;;;;18.13;71.43;99384.82;112548;236;40197;-60
2024/04/25 06:00:50;;;;;;;;;27.00;23.00;;;;;18.80;69.86;99381.98;112370;233;170056;-61
2024/04/25 06:03:32;;;;;;;;;27.00;22.00;;;;;19.48;65.68;99388.55;112548;236;40265;-57
2024/04/25 06:06:07;;;;;;;;;26.00;22.00;;;;;20.06;64.44;99386.66;112562;232;41485;-57
2024/04/25 06:08:44;;;;;;;;;27.00;22.00;;;;;20.47;62.56;99385.31;112413;236;170056;-59
2024/04/25 06:11:32;;;;;;;;;25.00;21.00;;;;;20.73;61.93;99384.77;112538;232;41804;-60
2024/04/25 06:14:08;;;;;;;;;26.00;22.50;;;;;21.58;60.22;99382.92;112406;232;169900;-58
2024/04/25 06:16:45;;;;;;;;;28.00;24.00;;;;;22.16;58.05;99384.90;112512;236;40027;-58
2024/04/25 06:19:21;;;;;;;;;23.00;19.00;;;;;20.89;56.25;99386.56;112385;236;170068;-60
2024/04/25 06:22:02;;;;;;;;;23.33;19.00;;;;;19.34;55.80;99389.70;112547;232;40769;-60
2024/04/25 06:24:40;;;;;;;;;23.00;20.00;;;;;18.60;55.49;99392.06;112417;232;170154;-58
2024/04/25 06:27:18;;;;;;;;;24.33;20.00;;;;;18.33;54.28;99394.08;112801;232;41285;-56
2024/04/25 06:29:54;;;;;;;;;23.00;17.50;;;;;17.17;54.59;99401.05;112827;232;40485;-58
2024/04/25 06:32:35;;;;;;;;;19.00;15.67;;;;;16.30;55.01;99404.68;112380;235;170923;-59
2024/04/25 06:35:10;;;;;;;;;18.33;16.00;;;;;15.26;56.19;99410.19;112496;236;41002;-59
2024/04/25 06:37:44;;;;;;;;;19.25;17.00;;;;;14.28;56.60;99413.41;112360;232;170896;-58
2024/04/25 06:40:18;;;;;;;;;19.00;16.00;;;;;14.15;56.52;99407.90;112563;232;40500;-59
2024/04/25 06:42:54;;;;;;;;;17.00;14.00;;;;;13.80;56.88;99413.77;112408;231;169671;-57
2024/04/25 06:45:32;;;;;;;;;17.00;14.00;;;;;13.38;57.47;99417.39;112464;234;41049;-58
2024/04/25 06:48:10;;;;;;;;;14.67;12.00;;;;;13.14;57.69;99421.54;112793;232;40008;-57
2024/04/25 06:50:49;;;;;;;;;17.33;14.00;;;;;12.88;58.03;99423.56;111703;235;169358;-59
2024/04/25 06:53:28;;;;;;;;;18.00;14.00;;;;;12.80;58.04;99427.22;112522;236;41428;-60
2024/04/25 06:56:06;;;;;;;;;17.00;13.00;;;;;12.85;58.61;99427.70;112355;232;169783;-59
2024/04/25 06:58:42;;;;;;;;;13.00;10.00;;;;;12.66;58.38;99434.67;112568;232;40192;-57
2024/04/25 07:01:24;;;;;;;;;13.00;10.00;;;;;12.51;58.32;99435.10;112348;236;169681;-56
2024/04/25 07:04:01;;;;;;;;;13.00;11.00;;;;;12.47;58.90;99442.02;112486;232;40889;-58
2024/04/25 07:06:36;;;;;;;;;14.75;12.50;;;;;12.41;58.83;99441.95;112346;232;169918;-58
2024/04/25 07:09:13;;;;;;;;;17.00;14.00;;;;;12.64;58.74;99442.33;112784;231;40216;-59
2024/04/25 07:11:54;;;;;;;;;17.00;14.00;;;;;12.88;58.65;99445.37;112795;232;40654;-59
2024/04/25 07:14:34;;;;;;;;;16.00;13.67;;;;;13.21;57.98;99445.35;112358;232;169214;-59
2024/04/25 07:17:13;;;;;;;;;14.67;12.00;;;;;13.86;58.71;99447.41;112509;232;41343;-59
2024/04/25 07:19:49;;;;;;;;;15.00;12.00;;;;;14.59;57.33;99449.90;112365;232;169883;-58
2024/04/25 07:22:31;;;;;;;;;14.00;12.00;;;;;14.93;56.50;99445.52;112496;232;39916;-57
2024/04/25 07:25:11;;;;;;;;;14.50;12.00;;;;;15.04;56.41;99452.10;112467;235;169305;-56
2024/04/25 07:27:54;;;;;;;;;14.00;12.00;;;;;15.22;56.60;99455.85;112807;235;40323;-56
2024/04/25 07:30:28;;;;;;;;;16.50;13.50;;;;;15.24;56.44;99457.29;112855;232;39935;-59
2024/04/25 07:33:03;;;;;;;;;17.00;15.00;;;;;15.56;55.86;99457.02;112398;236;40337;-60
2024/04/25 07:35:42;;;;;;;;;14.00;11.00;;;;;15.47;55.38;99456.92;112631;232;40534;-60
2024/04/25 07:38:17;;;;;;;;;13.00;12.00;;;;;14.92;55.01;99460.77;112431;232;169039;-60
2024/04/25 07:40:53;;;;;;;;;15.00;12.00;;;;;14.71;54.99;99464.02;112438;236;41580;-56
2024/04/25 07:43:37;;;;;;;;;17.33;14.00;;;;;14.82;55.07;99462.40;112512;235;169722;-58
2024/04/25 07:46:15;;;;;;;;;16.00;13.50;;;;;14.78;54.98;99466.02;112477;235;39992;-57
2024/04/25 07:48:50;;;;;;;;;17.00;15.00;;;;;14.93;55.20;99469.60;112627;232;170579;-57
2024/04/25 07:51:32;;;;;;;;;16.00;14.00;;;;;15.31;55.66;99464.88;112822;232;40890;-57
2024/04/25 07:54:11;;;;;;;;;15.00;13.00;;;;;16.22;55.13;99463.32;112827;232;40394;-58
2024/04/25 07:56:49;;;;;;;;;14.00;11.00;;;;;17.02;54.14;99456.46;112363;232;170049;-59
2024/04/25 07:59:29;;;;;;;;;16.33;14.00;;;;;17.15;53.13;99456.84;112467;232;40503;-59
2024/04/25 08:02:10;;;;;;;;;13.00;12.00;;;;;17.46;52.44;99453.71;112311;236;169992;-59
2024/04/25 08:04:54;;;;;;;;;14.67;12.67;;;;;17.96;50.74;99450.94;112464;232;40319;-60
2024/04/25 08:07:33;;;;;;;;;18.00;15.00;;;;;18.80;50.18;99448.14;112309;232;169828;-60
2024/04/25 08:10:11;;;;;;;;;17.67;15.33;;;;;19.53;48.89;99447.09;112406;236;40970;-59
2024/04/25 08:12:49;;;;;;;;;17.25;15.25;;;;;19.86;48.11;99445.27;112333;235;170835;-59
2024/04/25 08:15:26;;;;;;;;;19.00;17.00;;;;;20.22;47.37;99444.69;112799;231;41939;-60
2024/04/25 08:18:04;;;;;;;;;15.00;13.00;;;;;20.65;46.54;99445.85;112542;233;39821;-59
2024/04/25 08:20:45;;;;;;;;;16.50;14.50;;;;;20.56;45.29;99446.00;112413;232;170333;-60
2024/04/25 08:23:25;;;;;;;;;18.00;15.00;;;;;19.18;43.75;99448.32;112464;232;40675;-56
2024/04/25 08:26:03;;;;;;;;;18.00;14.00;;;;;18.17;44.59;99452.25;112340;236;169855;-59
2024/04/25 08:28:44;;;;;;;;;18.00;16.00;;;;;17.49;44.88;99454.56;112434;233;41011;-60
2024/04/25 08:31:26;;;;;;;;;21.00;17.00;;;;;17.08;45.88;99455.06;112362;236;170016;-59
2024/04/25 08:34:03;;;;;;;;;22.00;19.00;;;;;16.77;45.84;99459.41;112438;232;39609;-60
2024/04/25 08:36:40;;;;;;;;;19.00;17.00;;;;;16.62;46.89;99458.05;112327;232;169952;-60
2024/04/25 08:39:20;;;;;;;;;20.00;17.00;;;;;16.78;47.53;99457.73;112802;235;41197;-58
2024/04/25 08:41:56;;;;;;;;;19.00;16.00;;;;;17.35;47.36;99456.31;112801;232;40734;-60
2024/04/25 08:44:32;;;;;;;;;24.00;20.00;;;;;17.20;46.92;99456.69;112389;232;169758;-59
2024/04/25 08:47:12;;;;;;;;;25.67;20.67;;;;;16.97;46.44;99463.38;112509;236;40960;-60
2024/04/25 08:49:53;;;;;;;;;24.00;20.00;;;;;16.13;46.71;99468.40;112353;235;169907;-57
2024/04/25 08:52:33;;;;;;;;;29.00;22.00;;;;;15.74;47.27;99472.27;112788;232;42040;-56
2024/04/25 08:55:10;;;;;;;;;28.00;23.00;;;;;15.72;46.63;99475.11;112569;235;170099;-58
2024/04/25 08:57:49;;;;;;;;;28.50;23.00;;;;;15.57;47.13;99474.29;112462;236;40571;-57
2024/04/25 09:00:26;;;;;;;;;29.00;23.00;;;;;15.53;47.61;99472.29;112487;232;40466;-61
2024/04/25 09:03:08;;;;;;;;;26.00;22.00;;;;;15.66;48.35;99474.79;112452;236;40238;-60
2024/04/25 09:05:44;;;;;;;;;24.50;20.00;;;;;16.04;46.51;99472.98;112517;232;39739;-60
2024/04/25 09:08:24;;;;;;;;;25.00;22.00;;;;;16.26;46.40;99477.66;112354;232;169860;-60
2024/04/25 09:11:05;;;;;;;;;22.00;19.50;;;;;16.52;46.70;99471.86;112498;236;40969;-58
2024/04/25 09:13:58;;;;;;;;;26.00;22.00;;;;;16.63;46.44;99474.38;112249;234;169442;-55
2024/04/25 09:16:44;;;;;;;;;25.33;20.67;;;;;16.72;46.33;99475.44;112441;232;39921;-56
2024/04/25 09:19:18;;;;;;;;;22.00;18.50;;;;;17.07;46.44;99476.34;112412;232;170122;-57
2024/04/25 09:22:05;;;;;;;;;28.00;23.00;;;;;17.32;45.53;99479.21;112812;232;39702;-56
2024/04/25 09:24:42;;;;;;;;;23.00;19.00;;;;;17.36;43.81;99480.52;112683;235;170042;-60
2024/04/25 09:27:20;;;;;;;;;24.00;20.50;;;;;16.94;43.52;99484.64;112482;232;40342;-60
2024/04/25 09:29:59;;;;;;;;;29.00;23.00;;;;;16.50;43.42;99486.33;112554;232;40981;-59
2024/04/25 09:32:35;;;;;;;;;28.00;24.00;;;;;16.31;43.70;99491.42;112362;232;170523;-58
2024/04/25 09:35:10;;;;;;;;;30.00;23.00;;;;;16.14;44.16;99493.49;112512;236;40756;-56
2024/04/25 09:37:45;;;;;;;;;26.67;22.33;;;;;15.82;44.61;99494.57;112370;236;169796;-56
2024/04/25 09:40:22;;;;;;;;;30.25;24.25;;;;;15.45;45.27;99494.40;112527;232;40337;-57
2024/04/25 09:42:57;;;;;;;;;31.50;26.00;;;;;15.07;45.76;99494.81;112382;235;170075;-57
2024/04/25 09:45:40;;;;;;;;;30.00;24.67;;;;;14.84;45.46;99498.23;112792;231;41729;-59
2024/04/25 09:48:20;;;;;;;;;32.75;25.75;;;;;14.50;45.52;99500.08;112807;235;41653;-59
2024/04/25 09:51:06;;;;;;;;;35.00;28.00;;;;;14.21;46.20;99499.89;112360;232;170827;-57
2024/04/25 09:53:53;;;;;;;;;30.00;24.33;;;;;13.91;46.68;99500.67;112535;236;40601;-56
2024/04/25 09:56:35;;;;;;;;;29.50;24.00;;;;;13.48;46.97;99505.49;112341;235;169738;-57
2024/04/25 09:59:27;;;;;;;;;28.00;23.00;;;;;13.30;47.62;99508.73;112875;232;41119;-56
2024/04/25 10:02:05;;;;;;;;;33.00;26.00;;;;;13.14;48.19;99506.57;112515;232;169782;-55
2024/04/25 10:04:44;;;;;;;;;31.00;25.00;;;;;12.99;49.03;99512.14;112549;232;40078;-56
2024/04/25 10:07:23;;;;;;;;;40.00;31.00;;;;;12.95;49.44;99516.89;112290;233;169996;-55
2024/04/25 10:10:02;;;;;;;;;39.00;29.67;;;;;12.80;49.81;99520.86;112825;231;41799;-56
2024/04/25 10:12:41;;;;;;;;;34.50;28.00;;;;;12.62;50.47;99520.05;112691;232;170118;-56
2024/04/25 10:15:28;;;;;;;;;38.00;29.00;;;;;12.35;51.49;99519.77;112830;231;40624;-56
2024/04/25 10:18:06;;;;;;;;;36.33;28.33;;;;;12.29;52.07;99525.52;112803;232;41021;-56
2024/04/25 10:20:41;;;;;;;;;38.00;30.00;;;;;12.26;52.49;99526.84;112411;232;169853;-57
2024/04/25 10:23:20;;;;;;;;;45.00;32.33;;;;;12.21;52.68;99531.21;112519;236;40414;-56
2024/04/25 10:26:00;;;;;;;;;42.00;31.33;;;;;12.15;53.17;99531.18;112351;236;170426;-59
2024/04/25 10:28:37;;;;;;;;;37.00;29.00;;;;;12.07;53.58;99533.46;112527;235;40500;-59
2024/04/25 10:31:15;;;;;;;;;41.50;30.00;;;;;12.08;53.78;99532.40;112392;235;170231;-59
2024/04/25 10:33:57;;;;;;;;;41.25;31.00;;;;;12.13;53.99;99538.85;112819;235;40297;-58
2024/04/25 10:36:37;;;;;;;;;45.50;33.00;;;;;12.31;54.43;99536.30;112762;232;40487;-57
2024/04/25 10:39:17;;;;;;;;;43.00;32.00;;;;;12.53;54.48;99537.35;112439;234;40336;-56
2024/04/25 10:41:54;;;;;;;;;42.33;32.00;;;;;12.70;54.61;99535.70;112467;232;41332;-57
2024/04/25 10:44:28;;;;;;;;;45.00;34.00;;;;;12.96;54.60;99530.86;112561;235;169943;-56
2024/04/25 10:47:09;;;;;;;;;41.00;32.00;;;;;13.17;54.57;99536.91;112816;232;40547;-56
2024/04/25 10:49:44;;;;;;;;;43.50;32.00;;;;;13.36;54.17;99534.25;112515;232;169883;-57
2024/04/25 10:52:22;;;;;;;;;39.00;29.75;;;;;13.53;53.90;99531.51;112532;232;41725;-57
2024/04/25 10:54:58;;;;;;;;;43.00;31.00;;;;;14.00;54.06;99529.58;112391;232;169949;-56
2024/04/25 10:57:33;;;;;;;;;36.50;28.50;;;;;14.43;53.55;99531.00;112812;235;39857;-56
2024/04/25 11:00:12;;;;;;;;;35.33;28.00;;;;;14.70;53.10;99527.33;112814;232;40459;-58
2024/04/25 11:02:52;;;;;;;;;41.67;32.00;;;;;14.96;52.58;99526.03;112445;232;169853;-57
2024/04/25 11:05:29;;;;;;;;;40.50;31.00;;;;;15.01;51.56;99531.17;112551;232;40025;-59
2024/04/25 11:08:06;;;;;;;;;42.00;33.00;;;;;14.82;51.60;99533.01;112403;232;170177;-59
2024/04/25 11:10:41;;;;;;;;;41.00;33.00;;;;;14.53;51.50;99537.55;112562;232;41262;-55
2024/04/25 11:13:16;;;;;;;;;39.00;30.50;;;;;14.58;51.82;99535.23;112408;235;169960;-56
2024/04/25 11:16:00;;;;;;;;;41.00;30.00;;;;;14.70;51.43;99529.09;112779;235;40113;-58
2024/04/25 11:18:36;;;;;;;;;39.67;30.33;;;;;14.85;51.23;99526.59;112770;235;41400;-59
2024/04/25 11:21:12;;;;;;;;;46.00;32.75;;;;;14.80;51.04;99524.04;112412;233;41047;-59
2024/04/25 11:23:50;;;;;;;;;46.00;35.00;;;;;14.58;51.24;99530.05;112530;236;40478;-59
2024/04/25 11:26:27;;;;;;;;;43.00;33.00;;;;;14.38;51.39;99536.20;112539;231;170293;-57
2024/04/25 11:29:06;;;;;;;;;49.00;37.33;;;;;14.52;51.57;99535.09;112800;232;40822;-58
2024/04/25 11:31:41;;;;;;;;;37.00;30.00;;;;;14.85;51.34;99528.17;112658;235;169679;-59
2024/04/25 11:34:24;;;;;;;;;46.50;34.00;;;;;15.07;51.33;99525.02;112855;231;39677;-56
2024/04/25 11:37:02;;;;;;;;;41.00;31.00;;;;;15.00;50.65;99522.07;112604;232;170039;-55
2024/04/25 11:39:52;;;;;;;;;34.50;27.00;;;;;14.73;50.43;99520.66;112479;232;41090;-56
2024/04/25 11:42:30;;;;;;;;;46.00;35.00;;;;;14.62;50.71;99517.27;112464;232;39863;-56
2024/04/25 11:45:04;;;;;;;;;40.00;31.00;;;;;14.51;50.60;99528.25;112382;232;169780;-58
2024/04/25 11:47:43;;;;;;;;;44.00;34.00;;;;;14.25;51.21;99528.19;112488;232;40669;-58
2024/04/25 11:50:16;;;;;;;;;39.50;31.00;;;;;14.16;51.41;99528.95;112381;236;169706;-61
2024/04/25 11:52:54;;;;;;;;;43.00;33.00;;;;;14.05;51.72;99526.18;112475;236;40932;-61
2024/04/25 11:55:32;;;;;;;;;41.50;32.00;;;;;14.31;51.88;99526.83;112385;232;170031;-58
2024/04/25 11:58:11;;;;;;;;;43.25;31.75;;;;;14.63;51.91;99523.72;112770;235;40100;-58
2024/04/25 12:00:47;;;;;;;;;41.50;30.50;;;;;14.57;51.12;99523.02;112653;235;171157;-57
2024/04/25 12:03:34;;;;;;;;;42.00;33.00;;;;;14.38;51.19;99529.62;112482;232;40039;-57
2024/04/25 12:06:10;;;;;;;;;39.33;30.33;;;;;14.27;51.27;99527.05;112416;232;42137;-56
2024/04/25 12:08:47;;;;;;;;;37.00;29.50;;;;;14.32;51.44;99521.64;112373;232;169882;-59
2024/04/25 12:11:24;;;;;;;;;40.00;31.00;;;;;14.19;51.84;99521.45;112441;232;40526;-59
2024/04/25 12:14:03;;;;;;;;;34.00;27.00;;;;;14.24;51.47;99520.91;112335;232;170207;-64
2024/04/25 12:16:39;;;;;;;;;35.67;27.67;;;;;14.46;51.17;99519.11;112527;232;41260;-59